sensor_id;sensor_type;location;lat;lon;timestamp;P1;durP1;ratioP1;P2;durP2;ratioP2
23866;SDS011;12114;53.404;-1.502;2023-02-21T00:02:25;5.53;;;4.90;;
23866;SDS011;12114;53.404;-1.502;2023-02-21T00:05:09;5.68;;;5.18;;
23866;SDS011;12114;53.404;-1.502;2023-02-21T00:07:52;5.20;;;4.70;;
23866;SDS011;12114;53.404;-1.502;2023-02-21T00:10:36;4.85;;;4.45;;
23866;SDS011;12114;53.404;-1.502;2023-02-21T00:13:20;4.13;;;3.78;;
23866;SDS011;12114;53.404;-1.502;2023-02-21T00:16:04;6.00;;;4.55;;
23866;SDS011;12114;53.404;-1.502;2023-02-21T00:18:47;5.47;;;4.03;;
23866;SDS011;12114;53.404;-1.502;2023-02-21T00:21:31;4.85;;;3.28;;
23866;SDS011;12114;53.404;-1.502;2023-02-21T00:24:16;2.40;;;2.20;;
23866;SDS011;12114;53.404;-1.502;2023-02-21T00:27:00;2.20;;;2.03;;
23866;SDS011;12114;53.404;-1.502;2023-02-21T00:29:48;2.30;;;2.10;;
23866;SDS011;12114;53.404;-1.502;2023-02-21T00:32:32;2.30;;;2.10;;
23866;SDS011;12114;53.404;-1.502;2023-02-21T00:35:15;2.38;;;2.10;;
23866;SDS011;12114;53.404;-1.502;2023-02-21T00:37:59;2.08;;;1.63;;
23866;SDS011;12114;53.404;-1.502;2023-02-21T00:40:43;1.90;;;1.48;;
23866;SDS011;12114;53.404;-1.502;2023-02-21T00:43:30;4.28;;;1.67;;
23866;SDS011;12114;53.404;-1.502;2023-02-21T00:46:14;2.85;;;1.60;;
23866;SDS011;12114;53.404;-1.502;2023-02-21T00:48:58;1.35;;;1.23;;
23866;SDS011;12114;53.404;-1.502;2023-02-21T00:51:42;1.10;;;1.00;;
23866;SDS011;12114;53.404;-1.502;2023-02-21T00:54:25;1.20;;;1.10;;
23866;SDS011;12114;53.404;-1.502;2023-02-21T00:57:09;2.05;;;1.27;;
23866;SDS011;12114;53.404;-1.502;2023-02-21T00:59:53;1.33;;;1.10;;
23866;SDS011;12114;53.404;-1.502;2023-02-21T01:02:37;1.27;;;1.17;;
23866;SDS011;12114;53.404;-1.502;2023-02-21T01:05:20;1.10;;;0.80;;
23866;SDS011;12114;53.404;-1.502;2023-02-21T01:08:04;1.20;;;1.10;;
23866;SDS011;12114;53.404;-1.502;2023-02-21T01:10:48;0.88;;;0.85;;
23866;SDS011;12114;53.404;-1.502;2023-02-21T01:13:32;1.10;;;1.00;;
23866;SDS011;12114;53.404;-1.502;2023-02-21T01:16:16;1.88;;;1.27;;
23866;SDS011;12114;53.404;-1.502;2023-02-21T01:18:59;1.23;;;1.00;;
23866;SDS011;12114;53.404;-1.502;2023-02-21T01:21:43;6.57;;;2.60;;
23866;SDS011;12114;53.404;-1.502;2023-02-21T01:24:27;1.98;;;1.60;;
23866;SDS011;12114;53.404;-1.502;2023-02-21T01:27:11;1.50;;;1.17;;
23866;SDS011;12114;53.404;-1.502;2023-02-21T01:29:55;2.03;;;1.02;;
23866;SDS011;12114;53.404;-1.502;2023-02-21T01:32:38;1.30;;;0.95;;
23866;SDS011;12114;53.404;-1.502;2023-02-21T01:35:22;2.47;;;1.08;;
23866;SDS011;12114;53.404;-1.502;2023-02-21T01:38:06;1.05;;;0.95;;
23866;SDS011;12114;53.404;-1.502;2023-02-21T01:40:49;1.10;;;1.00;;
23866;SDS011;12114;53.404;-1.502;2023-02-21T01:43:33;2.75;;;1.23;;
23866;SDS011;12114;53.404;-1.502;2023-02-21T01:46:19;1.60;;;1.30;;
23866;SDS011;12114;53.404;-1.502;2023-02-21T01:49:14;1.88;;;0.90;;
23866;SDS011;12114;53.404;-1.502;2023-02-21T01:51:59;1.40;;;1.10;;
23866;SDS011;12114;53.404;-1.502;2023-02-21T01:54:46;1.23;;;1.02;;
23866;SDS011;12114;53.404;-1.502;2023-02-21T01:57:31;0.82;;;0.80;;
23866;SDS011;12114;53.404;-1.502;2023-02-21T02:00:16;1.17;;;0.88;;
23866;SDS011;12114;53.404;-1.502;2023-02-21T02:03:07;1.00;;;0.90;;
23866;SDS011;12114;53.404;-1.502;2023-02-21T02:05:53;1.10;;;0.85;;
23866;SDS011;12114;53.404;-1.502;2023-02-21T02:08:38;1.63;;;0.90;;
23866;SDS011;12114;53.404;-1.502;2023-02-21T02:39:50;6.68;;;6.07;;
23866;SDS011;12114;53.404;-1.502;2023-02-21T02:44:59;2.40;;;2.20;;
23866;SDS011;12114;53.404;-1.502;2023-02-21T02:47:28;2.30;;;2.10;;
23866;SDS011;12114;53.404;-1.502;2023-02-21T02:49:54;2.83;;;2.63;;
23866;SDS011;12114;53.404;-1.502;2023-02-21T02:52:19;3.28;;;2.97;;
23866;SDS011;12114;53.404;-1.502;2023-02-21T02:54:56;3.28;;;2.72;;
23866;SDS011;12114;53.404;-1.502;2023-02-21T02:57:22;3.17;;;2.67;;
23866;SDS011;12114;53.404;-1.502;2023-02-21T02:59:47;2.30;;;2.10;;
23866;SDS011;12114;53.404;-1.502;2023-02-21T03:12:35;9.43;;;5.60;;
23866;SDS011;12114;53.404;-1.502;2023-02-21T03:15:12;22.42;;;13.10;;
23866;SDS011;12114;53.404;-1.502;2023-02-21T03:17:45;3.30;;;2.13;;
23866;SDS011;12114;53.404;-1.502;2023-02-21T03:20:13;2.42;;;1.52;;
23866;SDS011;12114;53.404;-1.502;2023-02-21T03:22:39;4.10;;;2.63;;
23866;SDS011;12114;53.404;-1.502;2023-02-21T03:25:04;3.90;;;2.95;;
23866;SDS011;12114;53.404;-1.502;2023-02-21T03:27:30;1.20;;;0.90;;
23866;SDS011;12114;53.404;-1.502;2023-02-21T03:29:57;1.20;;;0.60;;
23866;SDS011;12114;53.404;-1.502;2023-02-21T03:32:25;1.08;;;0.70;;
23866;SDS011;12114;53.404;-1.502;2023-02-21T03:34:51;1.52;;;0.63;;
23866;SDS011;12114;53.404;-1.502;2023-02-21T03:39:54;1.33;;;0.82;;
23866;SDS011;12114;53.404;-1.502;2023-02-21T03:42:20;3.65;;;3.15;;
23866;SDS011;12114;53.404;-1.502;2023-02-21T03:44:45;5.80;;;3.55;;
23866;SDS011;12114;53.404;-1.502;2023-02-21T03:47:10;0.90;;;0.70;;
23866;SDS011;12114;53.404;-1.502;2023-02-21T03:49:35;0.70;;;0.60;;
23866;SDS011;12114;53.404;-1.502;2023-02-21T03:52:01;3.03;;;2.40;;
23866;SDS011;12114;53.404;-1.502;2023-02-21T03:54:26;4.05;;;1.80;;
23866;SDS011;12114;53.404;-1.502;2023-02-21T03:56:51;0.95;;;0.80;;
23866;SDS011;12114;53.404;-1.502;2023-02-21T03:59:17;1.77;;;1.20;;
23866;SDS011;12114;53.404;-1.502;2023-02-21T04:01:42;1.20;;;1.00;;
23866;SDS011;12114;53.404;-1.502;2023-02-21T04:04:07;2.35;;;2.15;;
23866;SDS011;12114;53.404;-1.502;2023-02-21T04:06:32;1.42;;;1.30;;
23866;SDS011;12114;53.404;-1.502;2023-02-21T04:08:58;1.60;;;1.30;;
23866;SDS011;12114;53.404;-1.502;2023-02-21T04:11:23;1.20;;;1.10;;
23866;SDS011;12114;53.404;-1.502;2023-02-21T04:13:48;0.70;;;0.70;;
23866;SDS011;12114;53.404;-1.502;2023-02-21T04:16:14;0.80;;;0.80;;
23866;SDS011;12114;53.404;-1.502;2023-02-21T04:18:39;0.60;;;0.60;;
23866;SDS011;12114;53.404;-1.502;2023-02-21T04:21:04;1.13;;;0.73;;
23866;SDS011;12114;53.404;-1.502;2023-02-21T04:23:30;0.65;;;0.65;;
23866;SDS011;12114;53.404;-1.502;2023-02-21T04:25:55;1.10;;;0.77;;
23866;SDS011;12114;53.404;-1.502;2023-02-21T04:28:20;0.88;;;0.80;;
23866;SDS011;12114;53.404;-1.502;2023-02-21T04:30:46;0.90;;;0.63;;
23866;SDS011;12114;53.404;-1.502;2023-02-21T04:33:11;1.00;;;0.70;;
23866;SDS011;12114;53.404;-1.502;2023-02-21T04:35:36;3.35;;;2.58;;
23866;SDS011;12114;53.404;-1.502;2023-02-21T04:38:01;1.75;;;1.30;;
23866;SDS011;12114;53.404;-1.502;2023-02-21T04:40:27;1.55;;;0.80;;
23866;SDS011;12114;53.404;-1.502;2023-02-21T04:42:52;0.65;;;0.63;;
23866;SDS011;12114;53.404;-1.502;2023-02-21T04:45:17;1.17;;;0.80;;
23866;SDS011;12114;53.404;-1.502;2023-02-21T04:47:42;1.40;;;0.63;;
23866;SDS011;12114;53.404;-1.502;2023-02-21T04:50:08;0.80;;;0.70;;
23866;SDS011;12114;53.404;-1.502;2023-02-21T04:52:33;0.70;;;0.63;;
23866;SDS011;12114;53.404;-1.502;2023-02-21T04:54:58;2.17;;;0.85;;
23866;SDS011;12114;53.404;-1.502;2023-02-21T04:57:24;0.80;;;0.70;;
23866;SDS011;12114;53.404;-1.502;2023-02-21T04:59:54;0.90;;;0.80;;
23866;SDS011;12114;53.404;-1.502;2023-02-21T05:02:20;0.90;;;0.70;;
23866;SDS011;12114;53.404;-1.502;2023-02-21T05:04:45;0.90;;;0.80;;
23866;SDS011;12114;53.404;-1.502;2023-02-21T05:07:10;1.65;;;1.30;;
23866;SDS011;12114;53.404;-1.502;2023-02-21T05:09:36;1.60;;;1.23;;
23866;SDS011;12114;53.404;-1.502;2023-02-21T05:12:01;1.60;;;1.50;;
23866;SDS011;12114;53.404;-1.502;2023-02-21T05:14:26;1.58;;;1.40;;
23866;SDS011;12114;53.404;-1.502;2023-02-21T05:16:52;2.78;;;2.30;;
23866;SDS011;12114;53.404;-1.502;2023-02-21T05:19:18;3.83;;;2.55;;
23866;SDS011;12114;53.404;-1.502;2023-02-21T05:21:51;2.40;;;2.10;;
23866;SDS011;12114;53.404;-1.502;2023-02-21T05:24:16;1.77;;;1.38;;
23866;SDS011;12114;53.404;-1.502;2023-02-21T05:26:41;5.82;;;3.70;;
23866;SDS011;12114;53.404;-1.502;2023-02-21T05:29:07;3.38;;;2.60;;
23866;SDS011;12114;53.404;-1.502;2023-02-21T05:31:32;1.98;;;1.42;;
23866;SDS011;12114;53.404;-1.502;2023-02-21T05:33:57;2.20;;;1.65;;
23866;SDS011;12114;53.404;-1.502;2023-02-21T05:36:22;2.28;;;1.30;;
23866;SDS011;12114;53.404;-1.502;2023-02-21T05:38:50;1.98;;;1.25;;
23866;SDS011;12114;53.404;-1.502;2023-02-21T05:41:16;1.33;;;1.10;;
23866;SDS011;12114;53.404;-1.502;2023-02-21T05:43:42;2.13;;;1.50;;
23866;SDS011;12114;53.404;-1.502;2023-02-21T05:46:14;1.83;;;1.63;;
23866;SDS011;12114;53.404;-1.502;2023-02-21T05:48:39;1.98;;;1.30;;
23866;SDS011;12114;53.404;-1.502;2023-02-21T05:51:04;1.58;;;1.15;;
23866;SDS011;12114;53.404;-1.502;2023-02-21T05:53:30;1.70;;;0.98;;
23866;SDS011;12114;53.404;-1.502;2023-02-21T05:55:55;0.90;;;0.70;;
23866;SDS011;12114;53.404;-1.502;2023-02-21T05:58:20;1.00;;;0.70;;
23866;SDS011;12114;53.404;-1.502;2023-02-21T06:00:45;2.63;;;0.80;;
23866;SDS011;12114;53.404;-1.502;2023-02-21T06:03:11;1.08;;;0.55;;
23866;SDS011;12114;53.404;-1.502;2023-02-21T06:05:36;0.70;;;0.60;;
23866;SDS011;12114;53.404;-1.502;2023-02-21T06:08:01;1.10;;;0.68;;
23866;SDS011;12114;53.404;-1.502;2023-02-21T06:10:26;0.63;;;0.55;;
23866;SDS011;12114;53.404;-1.502;2023-02-21T06:12:52;2.80;;;1.40;;
23866;SDS011;12114;53.404;-1.502;2023-02-21T06:15:17;1.58;;;0.98;;
23866;SDS011;12114;53.404;-1.502;2023-02-21T06:17:42;1.98;;;1.20;;
23866;SDS011;12114;53.404;-1.502;2023-02-21T06:20:09;2.80;;;1.58;;
23866;SDS011;12114;53.404;-1.502;2023-02-21T06:22:36;2.95;;;1.60;;
23866;SDS011;12114;53.404;-1.502;2023-02-21T06:25:02;5.53;;;2.65;;
23866;SDS011;12114;53.404;-1.502;2023-02-21T06:27:27;3.75;;;2.65;;
23866;SDS011;12114;53.404;-1.502;2023-02-21T06:29:52;3.03;;;2.00;;
23866;SDS011;12114;53.404;-1.502;2023-02-21T06:32:17;4.50;;;1.70;;
23866;SDS011;12114;53.404;-1.502;2023-02-21T06:34:43;3.40;;;2.15;;
23866;SDS011;12114;53.404;-1.502;2023-02-21T06:37:08;2.75;;;2.10;;
23866;SDS011;12114;53.404;-1.502;2023-02-21T06:39:34;2.50;;;1.90;;
23866;SDS011;12114;53.404;-1.502;2023-02-21T06:41:59;4.40;;;2.30;;
23866;SDS011;12114;53.404;-1.502;2023-02-21T06:44:24;3.20;;;2.33;;
23866;SDS011;12114;53.404;-1.502;2023-02-21T06:46:49;3.17;;;2.28;;
23866;SDS011;12114;53.404;-1.502;2023-02-21T06:49:15;3.83;;;3.05;;
23866;SDS011;12114;53.404;-1.502;2023-02-21T06:51:40;6.63;;;5.30;;
23866;SDS011;12114;53.404;-1.502;2023-02-21T06:54:07;10.70;;;6.32;;
23866;SDS011;12114;53.404;-1.502;2023-02-21T06:56:32;8.48;;;5.80;;
23866;SDS011;12114;53.404;-1.502;2023-02-21T06:58:57;8.95;;;6.10;;
23866;SDS011;12114;53.404;-1.502;2023-02-21T07:01:24;8.68;;;6.15;;
23866;SDS011;12114;53.404;-1.502;2023-02-21T07:03:50;10.98;;;5.88;;
23866;SDS011;12114;53.404;-1.502;2023-02-21T07:06:15;8.32;;;6.07;;
23866;SDS011;12114;53.404;-1.502;2023-02-21T07:08:40;8.38;;;6.38;;
23866;SDS011;12114;53.404;-1.502;2023-02-21T07:11:06;10.40;;;6.97;;
23866;SDS011;12114;53.404;-1.502;2023-02-21T07:13:31;15.93;;;10.80;;
23866;SDS011;12114;53.404;-1.502;2023-02-21T07:15:57;16.83;;;9.88;;
23866;SDS011;12114;53.404;-1.502;2023-02-21T07:18:22;13.80;;;9.80;;
23866;SDS011;12114;53.404;-1.502;2023-02-21T07:20:47;13.30;;;10.35;;
23866;SDS011;12114;53.404;-1.502;2023-02-21T07:23:14;15.55;;;10.60;;
23866;SDS011;12114;53.404;-1.502;2023-02-21T07:25:39;17.13;;;11.50;;
23866;SDS011;12114;53.404;-1.502;2023-02-21T07:28:04;18.65;;;12.05;;
23866;SDS011;12114;53.404;-1.502;2023-02-21T07:30:29;19.50;;;13.50;;
23866;SDS011;12114;53.404;-1.502;2023-02-21T07:32:56;21.10;;;14.70;;
23866;SDS011;12114;53.404;-1.502;2023-02-21T07:35:21;18.90;;;13.32;;
23866;SDS011;12114;53.404;-1.502;2023-02-21T07:37:46;19.13;;;13.70;;
23866;SDS011;12114;53.404;-1.502;2023-02-21T07:40:12;24.45;;;15.48;;
23866;SDS011;12114;53.404;-1.502;2023-02-21T07:42:39;27.38;;;16.77;;
23866;SDS011;12114;53.404;-1.502;2023-02-21T07:45:07;24.00;;;15.13;;
23866;SDS011;12114;53.404;-1.502;2023-02-21T07:47:32;25.25;;;15.75;;
23866;SDS011;12114;53.404;-1.502;2023-02-21T07:49:58;21.38;;;12.27;;
23866;SDS011;12114;53.404;-1.502;2023-02-21T07:52:23;13.57;;;9.57;;
23866;SDS011;12114;53.404;-1.502;2023-02-21T07:54:48;15.30;;;9.98;;
23866;SDS011;12114;53.404;-1.502;2023-02-21T07:57:17;15.77;;;9.63;;
23866;SDS011;12114;53.404;-1.502;2023-02-21T07:59:42;10.05;;;6.68;;
23866;SDS011;12114;53.404;-1.502;2023-02-21T08:02:08;8.88;;;5.82;;
23866;SDS011;12114;53.404;-1.502;2023-02-21T08:04:33;11.23;;;6.95;;
23866;SDS011;12114;53.404;-1.502;2023-02-21T08:06:59;12.43;;;6.95;;
23866;SDS011;12114;53.404;-1.502;2023-02-21T08:09:25;10.93;;;7.45;;
23866;SDS011;12114;53.404;-1.502;2023-02-21T08:11:50;17.90;;;8.15;;
23866;SDS011;12114;53.404;-1.502;2023-02-21T08:14:15;14.00;;;8.77;;
23866;SDS011;12114;53.404;-1.502;2023-02-21T08:16:40;13.73;;;8.20;;
23866;SDS011;12114;53.404;-1.502;2023-02-21T08:19:06;11.82;;;8.25;;
23866;SDS011;12114;53.404;-1.502;2023-02-21T08:21:33;14.77;;;9.35;;
23866;SDS011;12114;53.404;-1.502;2023-02-21T08:23:58;10.70;;;6.70;;
23866;SDS011;12114;53.404;-1.502;2023-02-21T08:26:24;11.63;;;7.45;;
23866;SDS011;12114;53.404;-1.502;2023-02-21T08:28:49;9.80;;;6.40;;
23866;SDS011;12114;53.404;-1.502;2023-02-21T08:31:15;9.35;;;6.00;;
23866;SDS011;12114;53.404;-1.502;2023-02-21T08:33:40;9.73;;;6.50;;
23866;SDS011;12114;53.404;-1.502;2023-02-21T08:36:05;8.77;;;6.20;;
23866;SDS011;12114;53.404;-1.502;2023-02-21T08:38:31;12.57;;;7.18;;
23866;SDS011;12114;53.404;-1.502;2023-02-21T08:40:56;10.25;;;6.40;;
23866;SDS011;12114;53.404;-1.502;2023-02-21T08:43:22;10.63;;;6.80;;
23866;SDS011;12114;53.404;-1.502;2023-02-21T08:45:47;12.18;;;7.68;;
23866;SDS011;12114;53.404;-1.502;2023-02-21T08:48:12;12.02;;;8.10;;
23866;SDS011;12114;53.404;-1.502;2023-02-21T08:50:38;14.25;;;7.97;;
23866;SDS011;12114;53.404;-1.502;2023-02-21T08:53:03;15.13;;;8.63;;
23866;SDS011;12114;53.404;-1.502;2023-02-21T08:55:28;14.10;;;8.98;;
23866;SDS011;12114;53.404;-1.502;2023-02-21T08:57:54;18.65;;;10.93;;
23866;SDS011;12114;53.404;-1.502;2023-02-21T09:00:20;18.52;;;10.27;;
23866;SDS011;12114;53.404;-1.502;2023-02-21T09:02:48;14.50;;;9.02;;
23866;SDS011;12114;53.404;-1.502;2023-02-21T09:05:17;11.13;;;7.18;;
23866;SDS011;12114;53.404;-1.502;2023-02-21T09:07:43;9.32;;;6.70;;
23866;SDS011;12114;53.404;-1.502;2023-02-21T09:10:09;6.18;;;4.82;;
23866;SDS011;12114;53.404;-1.502;2023-02-21T09:12:35;6.10;;;3.47;;
23866;SDS011;12114;53.404;-1.502;2023-02-21T09:15:00;6.28;;;3.17;;
23866;SDS011;12114;53.404;-1.502;2023-02-21T09:17:26;10.05;;;6.25;;
23866;SDS011;12114;53.404;-1.502;2023-02-21T09:19:51;14.40;;;7.88;;
23866;SDS011;12114;53.404;-1.502;2023-02-21T09:22:16;13.68;;;7.25;;
23866;SDS011;12114;53.404;-1.502;2023-02-21T09:24:42;12.90;;;7.93;;
23866;SDS011;12114;53.404;-1.502;2023-02-21T09:27:07;15.77;;;8.05;;
23866;SDS011;12114;53.404;-1.502;2023-02-21T09:29:34;12.23;;;8.93;;
23866;SDS011;12114;53.404;-1.502;2023-02-21T09:32:00;12.35;;;8.23;;
23866;SDS011;12114;53.404;-1.502;2023-02-21T09:34:26;12.63;;;7.55;;
23866;SDS011;12114;53.404;-1.502;2023-02-21T09:36:52;12.23;;;7.57;;
23866;SDS011;12114;53.404;-1.502;2023-02-21T09:39:19;10.55;;;6.95;;
23866;SDS011;12114;53.404;-1.502;2023-02-21T09:41:44;10.93;;;7.90;;
23866;SDS011;12114;53.404;-1.502;2023-02-21T09:44:20;10.55;;;7.90;;
23866;SDS011;12114;53.404;-1.502;2023-02-21T09:46:49;13.48;;;8.30;;
23866;SDS011;12114;53.404;-1.502;2023-02-21T09:49:27;10.77;;;7.63;;
23866;SDS011;12114;53.404;-1.502;2023-02-21T09:51:54;16.85;;;9.38;;
23866;SDS011;12114;53.404;-1.502;2023-02-21T09:56:48;13.75;;;9.13;;
23866;SDS011;12114;53.404;-1.502;2023-02-21T09:59:14;11.32;;;7.85;;
23866;SDS011;12114;53.404;-1.502;2023-02-21T10:04:20;9.95;;;6.95;;
23866;SDS011;12114;53.404;-1.502;2023-02-21T10:06:51;12.57;;;7.03;;
23866;SDS011;12114;53.404;-1.502;2023-02-21T10:19:43;6.45;;;4.43;;
23866;SDS011;12114;53.404;-1.502;2023-02-21T10:22:18;5.38;;;3.88;;
23866;SDS011;12114;53.404;-1.502;2023-02-21T10:27:14;8.47;;;4.77;;
23866;SDS011;12114;53.404;-1.502;2023-02-21T10:29:45;12.07;;;7.40;;
23866;SDS011;12114;53.404;-1.502;2023-02-21T10:32:12;11.32;;;7.10;;
23866;SDS011;12114;53.404;-1.502;2023-02-21T10:34:38;11.18;;;6.55;;
23866;SDS011;12114;53.404;-1.502;2023-02-21T10:39:52;7.90;;;5.32;;
23866;SDS011;12114;53.404;-1.502;2023-02-21T10:42:27;8.02;;;4.85;;
23866;SDS011;12114;53.404;-1.502;2023-02-21T10:44:53;5.88;;;4.03;;
23866;SDS011;12114;53.404;-1.502;2023-02-21T10:47:21;5.93;;;4.30;;
23866;SDS011;12114;53.404;-1.502;2023-02-21T10:50:05;5.28;;;2.92;;
23866;SDS011;12114;53.404;-1.502;2023-02-21T10:52:35;5.28;;;2.70;;
23866;SDS011;12114;53.404;-1.502;2023-02-21T10:55:13;6.65;;;3.60;;
23866;SDS011;12114;53.404;-1.502;2023-02-21T10:57:40;6.68;;;2.70;;
23866;SDS011;12114;53.404;-1.502;2023-02-21T11:00:06;4.55;;;2.40;;
23866;SDS011;12114;53.404;-1.502;2023-02-21T11:02:39;3.55;;;2.13;;
23866;SDS011;12114;53.404;-1.502;2023-02-21T11:07:33;3.50;;;2.10;;
23866;SDS011;12114;53.404;-1.502;2023-02-21T11:09:58;4.13;;;2.35;;
23866;SDS011;12114;53.404;-1.502;2023-02-21T11:12:26;5.60;;;2.72;;
23866;SDS011;12114;53.404;-1.502;2023-02-21T11:17:23;5.22;;;1.95;;
23866;SDS011;12114;53.404;-1.502;2023-02-21T11:22:14;4.63;;;1.90;;
23866;SDS011;12114;53.404;-1.502;2023-02-21T11:24:44;8.48;;;1.90;;
23866;SDS011;12114;53.404;-1.502;2023-02-21T11:27:10;5.30;;;1.88;;
23866;SDS011;12114;53.404;-1.502;2023-02-21T11:29:36;2.72;;;1.50;;
23866;SDS011;12114;53.404;-1.502;2023-02-21T11:32:11;4.15;;;1.20;;
23866;SDS011;12114;53.404;-1.502;2023-02-21T11:34:37;1.92;;;1.10;;
23866;SDS011;12114;53.404;-1.502;2023-02-21T11:37:03;1.55;;;1.17;;
23866;SDS011;12114;53.404;-1.502;2023-02-21T11:39:32;4.03;;;1.45;;
23866;SDS011;12114;53.404;-1.502;2023-02-21T11:42:01;3.70;;;1.60;;
23866;SDS011;12114;53.404;-1.502;2023-02-21T11:52:19;3.85;;;1.33;;
23866;SDS011;12114;53.404;-1.502;2023-02-21T11:54:45;4.15;;;1.23;;
23866;SDS011;12114;53.404;-1.502;2023-02-21T12:07:36;2.47;;;1.40;;
23866;SDS011;12114;53.404;-1.502;2023-02-21T12:12:51;2.60;;;1.20;;
23866;SDS011;12114;53.404;-1.502;2023-02-21T12:20:24;2.78;;;1.17;;
23866;SDS011;12114;53.404;-1.502;2023-02-21T12:28:18;2.42;;;1.45;;
23866;SDS011;12114;53.404;-1.502;2023-02-21T12:31:04;4.20;;;1.27;;
23866;SDS011;12114;53.404;-1.502;2023-02-21T12:33:54;6.90;;;1.50;;
23866;SDS011;12114;53.404;-1.502;2023-02-21T12:44:33;2.53;;;1.55;;
23866;SDS011;12114;53.404;-1.502;2023-02-21T12:47:07;2.25;;;1.60;;
23866;SDS011;12114;53.404;-1.502;2023-02-21T12:50:35;2.55;;;2.00;;
23866;SDS011;12114;53.404;-1.502;2023-02-21T12:52:30;2.05;;;1.70;;
23866;SDS011;12114;53.404;-1.502;2023-02-21T12:55:00;3.60;;;2.10;;
23866;SDS011;12114;53.404;-1.502;2023-02-21T12:57:31;3.65;;;2.20;;
23866;SDS011;12114;53.404;-1.502;2023-02-21T13:00:15;4.57;;;2.70;;
23866;SDS011;12114;53.404;-1.502;2023-02-21T13:02:44;7.85;;;2.28;;
23866;SDS011;12114;53.404;-1.502;2023-02-21T13:05:18;4.63;;;3.08;;
23866;SDS011;12114;53.404;-1.502;2023-02-21T13:12:43;5.15;;;3.25;;
23866;SDS011;12114;53.404;-1.502;2023-02-21T13:17:38;5.40;;;2.80;;
23866;SDS011;12114;53.404;-1.502;2023-02-21T13:20:08;5.07;;;3.08;;
23866;SDS011;12114;53.404;-1.502;2023-02-21T13:22:34;6.20;;;3.42;;
23866;SDS011;12114;53.404;-1.502;2023-02-21T13:30:16;5.10;;;2.20;;
23866;SDS011;12114;53.404;-1.502;2023-02-21T13:32:55;2.40;;;2.20;;
23866;SDS011;12114;53.404;-1.502;2023-02-21T13:35:25;4.30;;;2.30;;
23866;SDS011;12114;53.404;-1.502;2023-02-21T13:37:51;3.03;;;2.20;;
23866;SDS011;12114;53.404;-1.502;2023-02-21T13:40:21;5.70;;;1.98;;
23866;SDS011;12114;53.404;-1.502;2023-02-21T13:42:48;3.10;;;2.13;;
23866;SDS011;12114;53.404;-1.502;2023-02-21T13:45:24;2.55;;;2.30;;
23866;SDS011;12114;53.404;-1.502;2023-02-21T13:55:33;3.60;;;2.42;;
23866;SDS011;12114;53.404;-1.502;2023-02-21T14:13:36;5.43;;;1.80;;
23866;SDS011;12114;53.404;-1.502;2023-02-21T14:16:15;2.50;;;1.80;;
23866;SDS011;12114;53.404;-1.502;2023-02-21T14:18:48;2.10;;;1.77;;
23866;SDS011;12114;53.404;-1.502;2023-02-21T14:23:44;3.85;;;1.73;;
23866;SDS011;12114;53.404;-1.502;2023-02-21T14:26:33;3.05;;;1.98;;
23866;SDS011;12114;53.404;-1.502;2023-02-21T14:37:11;5.68;;;1.30;;
23866;SDS011;12114;53.404;-1.502;2023-02-21T14:39:40;4.68;;;1.35;;
23866;SDS011;12114;53.404;-1.502;2023-02-21T14:57:39;1.95;;;1.10;;
23866;SDS011;12114;53.404;-1.502;2023-02-21T15:00:17;5.43;;;1.15;;
23866;SDS011;12114;53.404;-1.502;2023-02-21T15:02:54;6.07;;;1.60;;
23866;SDS011;12114;53.404;-1.502;2023-02-21T15:10:39;2.15;;;1.60;;
23866;SDS011;12114;53.404;-1.502;2023-02-21T15:13:04;2.25;;;1.20;;
23866;SDS011;12114;53.404;-1.502;2023-02-21T15:15:40;5.68;;;2.08;;
23866;SDS011;12114;53.404;-1.502;2023-02-21T15:20:32;5.30;;;1.73;;
23866;SDS011;12114;53.404;-1.502;2023-02-21T15:23:20;4.38;;;2.00;;
23866;SDS011;12114;53.404;-1.502;2023-02-21T15:25:44;5.15;;;2.13;;
23866;SDS011;12114;53.404;-1.502;2023-02-21T15:28:27;7.63;;;2.53;;
23866;SDS011;12114;53.404;-1.502;2023-02-21T15:30:56;3.80;;;2.28;;
23866;SDS011;12114;53.404;-1.502;2023-02-21T15:33:22;5.78;;;2.00;;
23866;SDS011;12114;53.404;-1.502;2023-02-21T15:36:00;6.03;;;2.35;;
23866;SDS011;12114;53.404;-1.502;2023-02-21T15:41:13;4.57;;;2.22;;
23866;SDS011;12114;53.404;-1.502;2023-02-21T15:43:49;6.00;;;2.20;;
23866;SDS011;12114;53.404;-1.502;2023-02-21T15:46:16;5.85;;;2.35;;
23866;SDS011;12114;53.404;-1.502;2023-02-21T15:48:43;4.15;;;2.20;;
23866;SDS011;12114;53.404;-1.502;2023-02-21T15:51:08;3.38;;;2.38;;
23866;SDS011;12114;53.404;-1.502;2023-02-21T15:53:35;4.00;;;2.40;;
23866;SDS011;12114;53.404;-1.502;2023-02-21T15:56:17;3.45;;;2.40;;
23866;SDS011;12114;53.404;-1.502;2023-02-21T15:59:28;3.25;;;2.10;;
23866;SDS011;12114;53.404;-1.502;2023-02-21T16:01:28;4.43;;;2.28;;
23866;SDS011;12114;53.404;-1.502;2023-02-21T16:04:12;3.75;;;2.20;;
23866;SDS011;12114;53.404;-1.502;2023-02-21T16:06:37;4.85;;;2.47;;
23866;SDS011;12114;53.404;-1.502;2023-02-21T16:11:49;4.40;;;2.25;;
23866;SDS011;12114;53.404;-1.502;2023-02-21T16:16:47;3.60;;;2.50;;
23866;SDS011;12114;53.404;-1.502;2023-02-21T16:19:18;7.40;;;2.50;;
23866;SDS011;12114;53.404;-1.502;2023-02-21T16:21:43;4.28;;;2.50;;
23866;SDS011;12114;53.404;-1.502;2023-02-21T16:24:22;10.30;;;2.42;;
23866;SDS011;12114;53.404;-1.502;2023-02-21T16:27:04;5.32;;;2.00;;
23866;SDS011;12114;53.404;-1.502;2023-02-21T16:29:30;5.07;;;2.60;;
23866;SDS011;12114;53.404;-1.502;2023-02-21T16:31:55;4.00;;;2.78;;
23866;SDS011;12114;53.404;-1.502;2023-02-21T16:34:21;5.28;;;2.83;;
23866;SDS011;12114;53.404;-1.502;2023-02-21T16:36:46;4.00;;;2.67;;
23866;SDS011;12114;53.404;-1.502;2023-02-21T16:39:12;3.78;;;2.42;;
23866;SDS011;12114;53.404;-1.502;2023-02-21T16:41:37;5.32;;;2.97;;
23866;SDS011;12114;53.404;-1.502;2023-02-21T16:44:02;4.97;;;2.42;;
23866;SDS011;12114;53.404;-1.502;2023-02-21T16:46:28;4.20;;;2.80;;
23866;SDS011;12114;53.404;-1.502;2023-02-21T16:48:53;5.60;;;3.63;;
23866;SDS011;12114;53.404;-1.502;2023-02-21T16:51:19;5.32;;;3.88;;
23866;SDS011;12114;53.404;-1.502;2023-02-21T16:53:44;7.70;;;4.78;;
23866;SDS011;12114;53.404;-1.502;2023-02-21T16:56:10;5.38;;;4.43;;
23866;SDS011;12114;53.404;-1.502;2023-02-21T16:58:40;11.23;;;4.40;;
23866;SDS011;12114;53.404;-1.502;2023-02-21T17:01:09;5.10;;;3.55;;
23866;SDS011;12114;53.404;-1.502;2023-02-21T17:03:36;4.97;;;3.40;;
23866;SDS011;12114;53.404;-1.502;2023-02-21T17:06:01;5.07;;;3.38;;
23866;SDS011;12114;53.404;-1.502;2023-02-21T17:08:27;5.50;;;4.00;;
23866;SDS011;12114;53.404;-1.502;2023-02-21T17:10:52;7.95;;;4.60;;
23866;SDS011;12114;53.404;-1.502;2023-02-21T17:13:18;11.63;;;4.90;;
23866;SDS011;12114;53.404;-1.502;2023-02-21T17:15:43;8.35;;;4.30;;
23866;SDS011;12114;53.404;-1.502;2023-02-21T17:18:09;11.52;;;4.60;;
23866;SDS011;12114;53.404;-1.502;2023-02-21T17:20:34;7.68;;;4.53;;
23866;SDS011;12114;53.404;-1.502;2023-02-21T17:23:00;10.18;;;4.25;;
23866;SDS011;12114;53.404;-1.502;2023-02-21T17:25:26;6.13;;;4.30;;
23866;SDS011;12114;53.404;-1.502;2023-02-21T17:27:51;6.05;;;4.53;;
23866;SDS011;12114;53.404;-1.502;2023-02-21T17:30:18;11.07;;;5.03;;
23866;SDS011;12114;53.404;-1.502;2023-02-21T17:32:43;13.80;;;5.72;;
23866;SDS011;12114;53.404;-1.502;2023-02-21T17:35:11;11.88;;;6.10;;
23866;SDS011;12114;53.404;-1.502;2023-02-21T17:37:39;8.88;;;5.25;;
23866;SDS011;12114;53.404;-1.502;2023-02-21T17:40:04;10.02;;;5.25;;
23866;SDS011;12114;53.404;-1.502;2023-02-21T17:42:29;9.18;;;4.40;;
23866;SDS011;12114;53.404;-1.502;2023-02-21T17:44:55;6.15;;;3.90;;
23866;SDS011;12114;53.404;-1.502;2023-02-21T17:47:21;5.22;;;3.45;;
23866;SDS011;12114;53.404;-1.502;2023-02-21T17:49:47;6.85;;;4.35;;
23866;SDS011;12114;53.404;-1.502;2023-02-21T17:52:13;9.10;;;5.63;;
23866;SDS011;12114;53.404;-1.502;2023-02-21T17:54:39;11.32;;;5.63;;
23866;SDS011;12114;53.404;-1.502;2023-02-21T17:57:05;7.65;;;5.40;;